Time;durP1;ratioP1;P1;durP2;ratioP2;P2;SDS_P1;SDS_P2;PMS_P1;PMS_P2;Temp;Humidity;BMP_temperature;BMP_pressure;BME280_temperature;BME280_humidity;BME280_pressure;Samples;Min_cycle;Max_cycle;Signal;HPM_P1;HPM_P2
2022/01/06 00:00:14;;;;;;;;;;;;;;;3.28;100.00;101220.25;5038688;28;19913;-73
2022/01/06 00:02:41;;;;;;;;;;;;;;;3.14;100.00;101205.25;5021872;28;19936;-73
2022/01/06 00:05:07;;;;;;;;;;;;;;;3.22;100.00;101217.94;5021680;28;19913;-72
2022/01/06 00:07:33;;;;;;;;;;;;;;;3.25;100.00;101223.84;5025699;28;19960;-74
2022/01/06 00:09:59;;;;;;;;;;;;;;;3.32;100.00;101217.41;5022914;28;19913;-73
2022/01/06 00:12:35;;;;;;;;;;;;;;;3.22;100.00;101220.53;5042293;28;19913;-73
2022/01/06 00:23:34;;;;;;;;;;;;;;;3.22;100.00;101210.09;4979643;28;20431;-73
2022/01/06 00:26:00;;;;;;;;;;;;;;;3.20;100.00;101215.38;4997869;28;19941;-74
2022/01/06 00:28:26;;;;;;;;;;;;;;;3.27;100.00;101216.78;4996983;28;19924;-73
2022/01/06 00:30:52;;;;;;;;;;;;;;;3.31;100.00;101215.69;4996955;28;19914;-72
2022/01/06 00:33:17;;;;;;;;;;;;;;;3.17;100.00;101230.38;4965806;28;20312;-73
2022/01/06 00:35:43;;;;;;;;;;;;;;;3.26;100.00;101222.91;4981453;28;19925;-73
2022/01/06 00:38:09;;;;;;;;;;;;;;;3.18;100.00;101226.81;4998795;28;19918;-73
2022/01/06 00:40:35;;;;;;;;;;;;;;;3.27;100.00;101222.00;4996646;28;19964;-73
2022/01/06 00:43:02;;;;;;;;;;;;;;;3.21;100.00;101221.47;5011475;28;19913;-74
2022/01/06 00:45:28;;;;;;;;;;;;;;;3.33;100.00;101219.06;4995725;28;19914;-73
2022/01/06 00:47:53;;;;;;;;;;;;;;;3.01;100.00;101214.63;4994290;28;19943;-73
2022/01/06 00:50:19;;;;;;;;;;;;;;;3.17;100.00;101219.94;4994647;28;19921;-73
2022/01/06 00:52:44;;;;;;;;;;;;;;;2.99;100.00;101219.06;4961666;28;20016;-72
2022/01/06 00:55:10;;;;;;;;;;;;;;;3.13;100.00;101222.69;5010246;28;19920;-72
2022/01/06 00:57:35;;;;;;;;;;;;;;;3.14;100.00;101226.16;5012592;28;19917;-72
2022/01/06 01:00:02;;;;;;;;;;;;;;;3.01;100.00;101225.06;5036162;28;19920;-73
2022/01/06 01:02:28;;;;;;;;;;;;;;;3.19;100.00;101245.03;5018625;28;19913;-74
2022/01/06 01:04:53;;;;;;;;;;;;;;;2.96;100.00;101255.75;5035848;28;19920;-73
2022/01/06 01:07:19;;;;;;;;;;;;;;;2.79;100.00;101262.56;5017964;28;19917;-72
2022/01/06 01:09:44;;;;;;;;;;;;;;;2.78;100.00;101262.66;5018584;28;19955;-73
2022/01/06 01:12:10;;;;;;;;;;;;;;;2.56;100.00;101266.25;5001513;28;20351;-73
2022/01/06 01:14:52;;;;;;;;;;;;;;;2.55;100.00;101267.19;5017820;28;20347;-73
2022/01/06 01:17:19;;;;;;;;;;;;;;;2.79;100.00;101270.41;5017580;28;19917;-74
2022/01/06 01:19:44;;;;;;;;;;;;;;;3.03;100.00;101283.22;5001046;28;20063;-74
2022/01/06 01:22:12;;;;;;;;;;;;;;;2.75;100.00;101278.44;5017464;28;20035;-73
2022/01/06 01:24:37;;;;;;;;;;;;;;;2.82;100.00;101272.03;5034673;28;19913;-73
2022/01/06 01:27:04;;;;;;;;;;;;;;;2.98;100.00;101259.97;5017535;28;19919;-73
2022/01/06 01:29:34;;;;;;;;;;;;;;;2.90;100.00;101259.47;5018101;28;19936;-74
2022/01/06 01:31:59;;;;;;;;;;;;;;;3.17;100.00;101261.69;5002269;28;19913;-74
2022/01/06 01:34:27;;;;;;;;;;;;;;;2.90;100.00;101272.50;5017564;28;19913;-74
2022/01/06 01:36:56;;;;;;;;;;;;;;;3.09;100.00;101282.94;5034100;28;19935;-72
2022/01/06 01:39:28;;;;;;;;;;;;;;;3.05;100.00;101279.63;5000779;28;19917;-73
2022/01/06 01:41:57;;;;;;;;;;;;;;;3.08;100.00;101284.69;5018796;28;19936;-73
2022/01/06 01:44:23;;;;;;;;;;;;;;;2.98;100.00;101269.56;5001931;28;19917;-74
2022/01/06 01:46:59;;;;;;;;;;;;;;;3.07;100.00;101290.81;5019646;28;20401;-73
2022/01/06 01:51:51;;;;;;;;;;;;;;;2.93;100.00;101288.88;5037485;28;19935;-73
2022/01/06 01:54:17;;;;;;;;;;;;;;;2.96;100.00;101297.47;5019381;28;19913;-72
2022/01/06 01:56:43;;;;;;;;;;;;;;;2.97;100.00;101294.78;5002396;28;20493;-73
2022/01/06 01:59:08;;;;;;;;;;;;;;;3.00;100.00;101294.66;5035756;28;19931;-73
2022/01/06 02:01:34;;;;;;;;;;;;;;;2.97;100.00;101294.78;5035833;28;19913;-73
2022/01/06 02:04:02;;;;;;;;;;;;;;;3.01;100.00;101305.94;5001152;28;19963;-74
2022/01/06 02:06:29;;;;;;;;;;;;;;;2.70;100.00;101303.00;5000637;28;19947;-73
2022/01/06 02:08:54;;;;;;;;;;;;;;;2.97;100.00;101302.59;5016772;28;19938;-71
2022/01/06 02:11:20;;;;;;;;;;;;;;;3.05;100.00;101310.94;5017197;28;19913;-74
2022/01/06 02:13:46;;;;;;;;;;;;;;;2.89;100.00;101312.56;5017365;28;19913;-74
2022/01/06 02:16:12;;;;;;;;;;;;;;;2.98;100.00;101316.53;5017358;28;20298;-72
2022/01/06 02:18:38;;;;;;;;;;;;;;;2.84;100.00;101319.75;5001231;28;20248;-73
2022/01/06 02:21:03;;;;;;;;;;;;;;;2.97;100.00;101318.25;5016747;28;19916;-72
2022/01/06 02:23:29;;;;;;;;;;;;;;;3.02;100.00;101323.25;5016183;28;20008;-72
2022/01/06 02:25:54;;;;;;;;;;;;;;;2.96;100.00;101321.78;5017106;28;19916;-73
2022/01/06 02:28:22;;;;;;;;;;;;;;;2.97;100.00;101317.41;5036499;28;20255;-73
2022/01/06 02:30:51;;;;;;;;;;;;;;;2.97;100.00;101323.47;5040642;23;20329;-73
2022/01/06 02:33:16;;;;;;;;;;;;;;;2.88;100.00;101327.38;5036217;28;19917;-71
2022/01/06 02:35:42;;;;;;;;;;;;;;;3.03;100.00;101325.81;5036820;28;20443;-73
2022/01/06 02:38:09;;;;;;;;;;;;;;;2.97;100.00;101326.09;5054512;28;19970;-73
2022/01/06 02:40:34;;;;;;;;;;;;;;;2.98;100.00;101330.41;5024747;28;20381;-73
2022/01/06 02:43:02;;;;;;;;;;;;;;;2.88;100.00;101329.13;5038347;28;19923;-73
2022/01/06 02:45:28;;;;;;;;;;;;;;;2.97;100.00;101331.31;5036147;28;19913;-73
2022/01/06 02:47:54;;;;;;;;;;;;;;;3.05;100.00;101341.41;5054513;28;19931;-74
2022/01/06 02:50:21;;;;;;;;;;;;;;;3.05;100.00;101337.03;5037099;28;19913;-73
2022/01/06 02:52:46;;;;;;;;;;;;;;;2.97;100.00;101344.34;5039797;28;19955;-72
2022/01/06 02:55:13;;;;;;;;;;;;;;;3.06;100.00;101341.31;5039566;28;19913;-71
2022/01/06 02:57:39;;;;;;;;;;;;;;;2.85;100.00;101345.75;5037434;28;19982;-73
2022/01/06 03:00:06;;;;;;;;;;;;;;;2.92;100.00;101341.13;5036237;28;20371;-73
2022/01/06 03:02:31;;;;;;;;;;;;;;;2.90;100.00;101337.72;5036813;28;19948;-72
2022/01/06 03:04:57;;;;;;;;;;;;;;;2.99;100.00;101337.31;5036694;28;19939;-73
2022/01/06 03:07:22;;;;;;;;;;;;;;;2.98;100.00;101347.81;5020196;28;19908;-73
2022/01/06 03:09:55;;;;;;;;;;;;;;;3.04;100.00;101332.69;5036244;28;20009;-73
2022/01/06 03:12:33;;;;;;;;;;;;;;;3.04;100.00;101340.53;5054474;28;19912;-73
2022/01/06 03:15:01;;;;;;;;;;;;;;;3.05;100.00;101344.84;5036881;28;19920;-73
2022/01/06 03:17:27;;;;;;;;;;;;;;;3.11;100.00;101339.34;5020192;28;20286;-73
2022/01/06 03:19:53;;;;;;;;;;;;;;;3.06;100.00;101343.91;5057873;28;20004;-74
2022/01/06 03:22:18;;;;;;;;;;;;;;;3.03;100.00;101345.84;5041637;28;19928;-74
2022/01/06 03:24:44;;;;;;;;;;;;;;;3.14;100.00;101344.41;5059693;28;19956;-74
2022/01/06 03:27:09;;;;;;;;;;;;;;;3.00;100.00;101351.19;5041417;28;19914;-74
2022/01/06 03:29:35;;;;;;;;;;;;;;;3.00;100.00;101354.66;5022247;28;19959;-73
2022/01/06 03:32:01;;;;;;;;;;;;;;;2.79;100.00;101353.03;5020163;28;20020;-74
2022/01/06 03:34:30;;;;;;;;;;;;;;;2.69;100.00;101358.66;5019543;28;19913;-73
2022/01/06 03:36:56;;;;;;;;;;;;;;;2.92;100.00;101354.16;5037701;28;19952;-73
2022/01/06 03:39:22;;;;;;;;;;;;;;;2.80;100.00;101355.56;5037720;28;20003;-73
2022/01/06 03:41:47;;;;;;;;;;;;;;;2.84;100.00;101362.34;5019388;28;19913;-72
2022/01/06 03:44:12;;;;;;;;;;;;;;;2.78;100.00;101348.72;5019589;28;19944;-73
2022/01/06 03:46:38;;;;;;;;;;;;;;;2.87;100.00;101366.56;5003170;28;19920;-73
2022/01/06 03:49:03;;;;;;;;;;;;;;;2.91;100.00;101363.75;5019098;28;20009;-74
2022/01/06 03:51:29;;;;;;;;;;;;;;;2.95;100.00;101368.81;5035871;28;19967;-74
2022/01/06 03:53:54;;;;;;;;;;;;;;;3.03;100.00;101366.72;5037519;28;20335;-74
2022/01/06 03:56:20;;;;;;;;;;;;;;;2.99;100.00;101365.16;5037028;28;19913;-74
2022/01/06 03:58:45;;;;;;;;;;;;;;;2.78;100.00;101373.06;5037000;28;20014;-73
2022/01/06 04:01:11;;;;;;;;;;;;;;;2.73;100.00;101388.06;5020336;28;19920;-74
2022/01/06 04:03:37;;;;;;;;;;;;;;;2.90;100.00;101380.31;5019437;28;19913;-73
2022/01/06 04:06:03;;;;;;;;;;;;;;;2.89;100.00;101388.22;5003333;28;20213;-73
2022/01/06 04:08:28;;;;;;;;;;;;;;;2.87;100.00;101370.03;5003257;28;19908;-73
2022/01/06 04:10:53;;;;;;;;;;;;;;;2.79;100.00;101376.50;5019169;28;19917;-73
2022/01/06 04:13:22;;;;;;;;;;;;;;;2.81;100.00;101372.06;5019248;28;19909;-72
2022/01/06 04:15:48;;;;;;;;;;;;;;;3.01;100.00;101374.59;5036819;28;19936;-72
2022/01/06 04:18:14;;;;;;;;;;;;;;;2.97;100.00;101380.03;5019272;28;20402;-73
2022/01/06 04:20:39;;;;;;;;;;;;;;;2.86;100.00;101384.00;5036449;28;20337;-73
2022/01/06 04:23:05;;;;;;;;;;;;;;;2.75;100.00;101390.59;5018843;28;20358;-72
2022/01/06 04:25:30;;;;;;;;;;;;;;;2.61;100.00;101386.84;5036229;28;19913;-72
2022/01/06 04:27:56;;;;;;;;;;;;;;;2.68;100.00;101390.88;5018826;28;20004;-72
2022/01/06 04:30:21;;;;;;;;;;;;;;;2.60;100.00;101400.78;5001750;28;20347;-72
2022/01/06 04:32:47;;;;;;;;;;;;;;;2.76;100.00;101402.72;5018652;28;19924;-73
2022/01/06 04:35:12;;;;;;;;;;;;;;;2.89;100.00;101404.72;5018672;28;19939;-73
2022/01/06 04:37:38;;;;;;;;;;;;;;;2.82;100.00;101407.69;5036375;28;20312;-72
2022/01/06 04:40:06;;;;;;;;;;;;;;;2.77;100.00;101409.63;5028923;22;19985;-75
2022/01/06 04:42:53;;;;;;;;;;;;;;;2.75;100.00;101408.84;4984628;28;19944;-76
2022/01/06 04:45:21;;;;;;;;;;;;;;;2.70;100.00;101415.13;4981287;28;19920;-76
2022/01/06 04:48:07;;;;;;;;;;;;;;;2.59;100.00;101416.50;4997306;28;19910;-76
2022/01/06 04:50:33;;;;;;;;;;;;;;;2.80;100.00;101405.13;4997674;28;19913;-75
2022/01/06 04:52:59;;;;;;;;;;;;;;;2.89;100.00;101415.16;4981472;28;20378;-76
2022/01/06 04:55:25;;;;;;;;;;;;;;;2.68;100.00;101416.09;5000159;28;20029;-76
2022/01/06 04:57:50;;;;;;;;;;;;;;;2.70;100.00;101415.13;4981609;28;19910;-76
2022/01/06 05:00:15;;;;;;;;;;;;;;;2.70;100.00;101415.13;4981567;28;20364;-76
2022/01/06 05:02:41;;;;;;;;;;;;;;;2.63;100.00;101421.50;4998910;28;19921;-76
2022/01/06 05:05:07;;;;;;;;;;;;;;;2.75;100.00;101417.53;4980044;28;19949;-76
2022/01/06 05:07:32;;;;;;;;;;;;;;;2.71;100.00;101414.19;4979430;28;19921;-74
2022/01/06 05:09:58;;;;;;;;;;;;;;;2.76;100.00;101414.00;4998002;28;20241;-75
2022/01/06 05:12:23;;;;;;;;;;;;;;;2.77;100.00;101407.88;4963422;28;20284;-76
2022/01/06 05:14:49;;;;;;;;;;;;;;;2.88;100.00;101416.06;4994702;28;20256;-75
2022/01/06 05:17:14;;;;;;;;;;;;;;;2.72;100.00;101417.66;4978964;28;20364;-75
2022/01/06 05:19:40;;;;;;;;;;;;;;;2.83;100.00;101427.63;4995794;28;19932;-76
2022/01/06 05:22:05;;;;;;;;;;;;;;;2.67;100.00;101422.22;4995683;28;19925;-76
2022/01/06 05:24:31;;;;;;;;;;;;;;;2.68;100.00;101422.19;4962022;28;19925;-77
2022/01/06 05:26:57;;;;;;;;;;;;;;;2.67;100.00;101422.22;5000831;28;19924;-76
2022/01/06 05:29:23;;;;;;;;;;;;;;;2.48;100.00;101428.25;5003450;28;20012;-76
2022/01/06 05:31:48;;;;;;;;;;;;;;;2.35;100.00;101434.06;4999307;28;19956;-76
2022/01/06 05:34:13;;;;;;;;;;;;;;;2.63;100.00;101426.72;5000279;28;19981;-75
2022/01/06 05:36:39;;;;;;;;;;;;;;;2.70;100.00;101425.56;4994664;28;19956;-76
2022/01/06 05:39:05;;;;;;;;;;;;;;;2.68;100.00;101423.91;4995580;28;19929;-76
2022/01/06 05:41:30;;;;;;;;;;;;;;;2.51;100.00;101437.69;4994847;28;20384;-76
2022/01/06 05:43:56;;;;;;;;;;;;;;;2.86;100.00;101440.50;4961114;28;20279;-76
2022/01/06 05:46:21;;;;;;;;;;;;;;;2.62;100.00;101442.44;4995249;28;19937;-77
2022/01/06 05:48:47;;;;;;;;;;;;;;;2.48;100.00;101443.88;4961008;28;20012;-76
2022/01/06 05:51:13;;;;;;;;;;;;;;;2.21;100.00;101445.91;4977149;28;20068;-76
2022/01/06 05:53:38;;;;;;;;;;;;;;;2.35;100.00;101447.09;4978312;28;19910;-76
2022/01/06 05:56:04;;;;;;;;;;;;;;;2.57;100.00;101458.28;4988449;28;19921;-77
2022/01/06 05:58:29;;;;;;;;;;;;;;;2.39;100.00;101456.47;4998588;28;19917;-77
2022/01/06 06:00:55;;;;;;;;;;;;;;;2.14;100.00;101467.06;5000618;28;19913;-76
2022/01/06 06:03:21;;;;;;;;;;;;;;;2.45;100.00;101466.63;5000121;28;19914;-77
2022/01/06 06:05:47;;;;;;;;;;;;;;;2.57;100.00;101479.16;5015774;28;19914;-77
2022/01/06 06:08:12;;;;;;;;;;;;;;;2.51;100.00;101476.81;4997234;28;20401;-79
2022/01/06 06:10:38;;;;;;;;;;;;;;;2.62;100.00;101479.78;5021794;28;19913;-80
2022/01/06 06:13:03;;;;;;;;;;;;;;;2.56;100.00;101482.66;5003442;28;19913;-77
2022/01/06 06:15:34;;;;;;;;;;;;;;;2.57;100.00;101476.53;5015744;28;19925;-79
2022/01/06 06:18:00;;;;;;;;;;;;;;;2.54;100.00;101479.25;4981035;28;20033;-78
2022/01/06 06:20:26;;;;;;;;;;;;;;;2.43;100.00;101482.34;4995256;28;20000;-78
2022/01/06 06:22:51;;;;;;;;;;;;;;;2.39;100.00;101486.00;5018662;28;19944;-78
2022/01/06 06:25:17;;;;;;;;;;;;;;;2.50;100.00;101483.78;5017032;28;20233;-78
2022/01/06 06:27:42;;;;;;;;;;;;;;;2.34;100.00;101480.13;4985634;28;20481;-78
2022/01/06 06:30:08;;;;;;;;;;;;;;;2.28;100.00;101490.78;5001995;28;19920;-78
2022/01/06 06:32:35;;;;;;;;;;;;;;;2.45;100.00;101488.34;4996981;28;19914;-77
2022/01/06 06:35:06;;;;;;;;;;;;;;;2.52;100.00;101496.72;5004866;28;19929;-77
2022/01/06 06:37:31;;;;;;;;;;;;;;;2.34;100.00;101489.69;5010189;28;19981;-82
2022/01/06 06:39:57;;;;;;;;;;;;;;;2.17;100.00;101493.00;4986882;28;19924;-80
2022/01/06 06:42:23;;;;;;;;;;;;;;;2.26;100.00;101497.81;5007228;28;19941;-77
2022/01/06 06:44:49;;;;;;;;;;;;;;;2.34;100.00;101498.38;5000015;28;20000;-77
2022/01/06 06:47:14;;;;;;;;;;;;;;;2.34;100.00;101500.97;5001282;28;19957;-77
2022/01/06 06:49:40;;;;;;;;;;;;;;;2.30;100.00;101500.25;4989364;28;19924;-77
2022/01/06 06:52:08;;;;;;;;;;;;;;;2.24;100.00;101507.47;4986197;28;19948;-77
2022/01/06 06:54:36;;;;;;;;;;;;;;;2.32;100.00;101513.22;4983576;28;19917;-79
2022/01/06 06:57:02;;;;;;;;;;;;;;;2.38;100.00;101509.50;5011194;28;19951;-76
2022/01/06 06:59:27;;;;;;;;;;;;;;;2.38;100.00;101510.34;4993461;28;19918;-77
2022/01/06 07:01:53;;;;;;;;;;;;;;;2.48;100.00;101508.22;4997066;28;19913;-78
2022/01/06 07:04:29;;;;;;;;;;;;;;;2.50;100.00;101506.41;4999837;28;20552;-77
2022/01/06 07:06:54;;;;;;;;;;;;;;;2.47;100.00;101514.34;4998831;28;20299;-77
2022/01/06 07:09:20;;;;;;;;;;;;;;;2.46;100.00;101515.25;4981242;28;19921;-78
2022/01/06 07:11:45;;;;;;;;;;;;;;;2.49;100.00;101505.53;4985143;28;19944;-81
2022/01/06 07:14:11;;;;;;;;;;;;;;;2.50;100.00;101515.06;5004460;28;20076;-79
2022/01/06 07:16:36;;;;;;;;;;;;;;;2.29;100.00;101514.19;5010736;28;19917;-78
2022/01/06 07:19:02;;;;;;;;;;;;;;;2.06;100.00;101525.53;5017559;28;19964;-77
2022/01/06 07:21:28;;;;;;;;;;;;;;;2.05;100.00;101525.59;5488063;22;20298;-74
2022/01/06 07:23:53;;;;;;;;;;;;;;;2.10;100.00;101528.88;5037520;28;19924;-73
2022/01/06 07:26:19;;;;;;;;;;;;;;;2.28;100.00;101524.69;5039772;28;19921;-74
2022/01/06 07:28:48;;;;;;;;;;;;;;;2.42;100.00;101527.56;5055875;28;19920;-75
2022/01/06 07:31:13;;;;;;;;;;;;;;;2.63;100.00;101530.19;5020924;28;20267;-76
2022/01/06 07:33:39;;;;;;;;;;;;;;;2.55;100.00;101525.31;5021292;28;19928;-75
2022/01/06 07:36:04;;;;;;;;;;;;;;;2.32;100.00;101528.00;5040683;28;19927;-77
2022/01/06 07:38:30;;;;;;;;;;;;;;;2.67;100.00;101531.75;5055011;28;20023;-76
2022/01/06 07:40:56;;;;;;;;;;;;;;;2.65;100.00;101530.97;5020081;28;19963;-76
2022/01/06 07:43:24;;;;;;;;;;;;;;;2.66;100.00;101536.13;5035916;28;19928;-74
2022/01/06 07:45:50;;;;;;;;;;;;;;;2.66;100.00;101540.50;5053575;28;19929;-75
2022/01/06 07:48:19;;;;;;;;;;;;;;;2.69;100.00;101545.56;5019034;28;19929;-73
2022/01/06 07:50:45;;;;;;;;;;;;;;;2.77;100.00;101546.13;5035316;28;19917;-77
2022/01/06 07:53:11;;;;;;;;;;;;;;;2.66;100.00;101553.53;5064515;28;19920;-77
2022/01/06 07:55:40;;;;;;;;;;;;;;;2.76;100.00;101546.16;5056934;28;20429;-77
2022/01/06 07:58:05;;;;;;;;;;;;;;;2.71;100.00;101546.38;5057280;28;19959;-77
2022/01/06 08:00:31;;;;;;;;;;;;;;;2.53;100.00;101544.53;5058394;28;19923;-77
2022/01/06 08:02:59;;;;;;;;;;;;;;;2.42;100.00;101547.56;5041566;28;20282;-78
2022/01/06 08:05:27;;;;;;;;;;;;;;;2.63;100.00;101554.50;5059245;28;19923;-81
2022/01/06 08:07:53;;;;;;;;;;;;;;;2.60;100.00;101552.03;5062407;28;19920;-79
2022/01/06 08:10:21;;;;;;;;;;;;;;;2.62;100.00;101547.59;5047575;28;19916;-79
2022/01/06 08:12:47;;;;;;;;;;;;;;;2.64;100.00;101548.38;5060326;28;20001;-77
2022/01/06 08:15:14;;;;;;;;;;;;;;;2.70;100.00;101549.88;5077729;28;19924;-79
2022/01/06 08:17:41;;;;;;;;;;;;;;;2.79;100.00;101551.25;5061304;28;19982;-79
2022/01/06 08:20:10;;;;;;;;;;;;;;;2.64;100.00;101560.56;5056968;28;19920;-77
2022/01/06 08:22:36;;;;;;;;;;;;;;;2.62;100.00;101560.63;5060399;28;19928;-79
2022/01/06 08:25:07;;;;;;;;;;;;;;;2.84;100.00;101562.31;5078460;28;19973;-79
2022/01/06 08:27:32;;;;;;;;;;;;;;;2.86;100.00;101565.72;5058032;28;20238;-76
2022/01/06 08:29:58;;;;;;;;;;;;;;;2.73;100.00;101560.19;5058901;28;19935;-76
2022/01/06 08:32:23;;;;;;;;;;;;;;;2.46;100.00;101556.97;5042101;28;19917;-74
2022/01/06 08:34:58;;;;;;;;;;;;;;;2.28;100.00;101564.63;5059714;28;19923;-78
2022/01/06 08:37:23;;;;;;;;;;;;;;;2.52;100.00;101567.13;5061242;28;19956;-77
2022/01/06 08:39:52;;;;;;;;;;;;;;;2.40;100.00;101575.47;5077185;28;19962;-76
2022/01/06 08:42:20;;;;;;;;;;;;;;;2.60;100.00;101572.88;5059534;28;20032;-77
2022/01/06 08:44:46;;;;;;;;;;;;;;;2.39;100.00;101581.59;5058768;28;19963;-74
2022/01/06 08:47:11;;;;;;;;;;;;;;;2.43;100.00;101575.31;5041284;28;19947;-76
2022/01/06 08:49:37;;;;;;;;;;;;;;;2.33;100.00;101581.81;5058358;28;19931;-76
2022/01/06 08:52:02;;;;;;;;;;;;;;;2.60;100.00;101580.72;5075924;28;19909;-75
2022/01/06 08:54:28;;;;;;;;;;;;;;;2.41;100.00;101579.78;5076616;28;19969;-76
2022/01/06 08:56:53;;;;;;;;;;;;;;;2.71;100.00;101583.72;5059440;28;20011;-75
2022/01/06 08:59:19;;;;;;;;;;;;;;;2.85;100.00;101580.53;5058901;28;19917;-76
2022/01/06 09:01:45;;;;;;;;;;;;;;;2.93;100.00;101583.69;5058753;28;20182;-73
2022/01/06 09:04:10;;;;;;;;;;;;;;;2.79;100.00;101579.94;5076553;28;19961;-73
2022/01/06 09:06:36;;;;;;;;;;;;;;;2.67;100.00;101576.94;5043381;28;19947;-72
2022/01/06 09:09:02;;;;;;;;;;;;;;;2.62;100.00;101578.03;5043104;28;20290;-73
2022/01/06 09:11:28;;;;;;;;;;;;;;;2.55;100.00;101577.44;5058469;28;19916;-73
2022/01/06 09:13:53;;;;;;;;;;;;;;;2.61;100.00;101585.03;5042855;28;19939;-72
2022/01/06 09:16:19;;;;;;;;;;;;;;;2.73;100.00;101575.84;5061075;28;19917;-73
2022/01/06 09:18:47;;;;;;;;;;;;;;;2.60;100.00;101582.47;5060752;28;19923;-76
2022/01/06 09:21:13;;;;;;;;;;;;;;;2.70;100.00;101576.81;5077523;28;19959;-74
2022/01/06 09:23:39;;;;;;;;;;;;;;;2.96;100.00;101577.47;5058008;28;19974;-73
2022/01/06 09:26:05;;;;;;;;;;;;;;;2.91;100.00;101576.84;5059478;28;19973;-77
2022/01/06 09:28:34;;;;;;;;;;;;;;;2.60;100.00;101582.47;5042472;28;19981;-73
2022/01/06 09:30:59;;;;;;;;;;;;;;;2.85;100.00;101579.69;5058921;28;19917;-74
2022/01/06 09:33:25;;;;;;;;;;;;;;;2.99;100.00;101577.34;5058970;28;19917;-77
2022/01/06 09:35:54;;;;;;;;;;;;;;;2.84;100.00;101578.84;5055936;28;19978;-75
2022/01/06 09:38:20;;;;;;;;;;;;;;;3.23;100.00;101577.22;5058216;28;19921;-74
2022/01/06 09:40:46;;;;;;;;;;;;;;;2.92;100.00;101586.34;5058876;28;20282;-75
2022/01/06 09:43:12;;;;;;;;;;;;;;;3.00;100.00;101580.78;5027731;28;19920;-73
2022/01/06 09:45:38;;;;;;;;;;;;;;;3.20;100.00;101592.97;5063332;28;19977;-73
2022/01/06 09:48:08;;;;;;;;;;;;;;;3.16;100.00;101594.03;5078305;28;19938;-79
2022/01/06 09:50:35;;;;;;;;;;;;;;;2.98;100.00;101593.91;5039332;28;19916;-74
2022/01/06 09:53:00;;;;;;;;;;;;;;;3.18;100.00;101590.47;5026638;28;19963;-75
2022/01/06 09:55:26;;;;;;;;;;;;;;;3.25;100.00;101593.66;5057222;28;19924;-75
2022/01/06 09:57:59;;;;;;;;;;;;;;;3.34;100.00;101594.09;5082137;28;19921;-75
2022/01/06 10:00:25;;;;;;;;;;;;;;;3.51;100.00;101589.88;5085829;28;19916;-74
2022/01/06 10:02:55;;;;;;;;;;;;;;;3.56;100.00;101590.50;5061831;28;19916;-75
2022/01/06 10:05:21;;;;;;;;;;;;;;;3.60;100.00;101593.84;5044739;28;19928;-74
2022/01/06 10:07:46;;;;;;;;;;;;;;;3.30;100.00;101581.25;5058199;28;19920;-74
2022/01/06 10:10:13;;;;;;;;;;;;;;;3.25;100.00;101589.28;5057534;28;20338;-73
2022/01/06 10:12:40;;;;;;;;;;;;;;;3.42;100.00;101591.13;5075835;28;19917;-73
2022/01/06 10:15:20;;;;;;;;;;;;;;;3.43;100.00;101587.63;5039099;28;19917;-73
2022/01/06 10:17:46;;;;;;;;;;;;;;;3.40;100.00;101589.50;5075166;28;19920;-72
2022/01/06 10:20:15;;;;;;;;;;;;;;;3.51;100.00;101595.09;5060286;28;19955;-74
2022/01/06 10:22:55;;;;;;;;;;;;;;;3.28;100.00;101591.72;5077721;28;19927;-74
2022/01/06 10:25:21;;;;;;;;;;;;;;;3.37;100.00;101590.50;5059389;28;19951;-75
2022/01/06 10:27:49;;;;;;;;;;;;;;;3.45;100.00;101588.41;5075830;28;19932;-75
2022/01/06 10:30:15;;;;;;;;;;;;;;;3.42;100.00;101580.69;5041042;28;20362;-75
2022/01/06 10:32:42;;;;;;;;;;;;;;;3.38;100.00;101578.28;5057288;28;19977;-72
2022/01/06 10:35:08;;;;;;;;;;;;;;;3.48;100.00;101583.03;5057078;28;19936;-72
2022/01/06 10:37:35;;;;;;;;;;;;;;;3.48;100.00;101588.25;5060011;28;19916;-74
2022/01/06 10:40:00;;;;;;;;;;;;;;;3.46;100.00;101586.63;5043271;28;19916;-75
2022/01/06 10:42:27;;;;;;;;;;;;;;;3.59;100.00;101581.69;5062164;28;19922;-76
2022/01/06 10:44:57;;;;;;;;;;;;;;;3.83;100.00;101577.13;5077009;28;19917;-77
2022/01/06 10:47:29;;;;;;;;;;;;;;;4.16;100.00;101580.75;5057583;28;20382;-74
2022/01/06 10:50:11;;;;;;;;;;;;;;;4.02;100.00;101572.75;5043754;28;19920;-75
2022/01/06 10:52:39;;;;;;;;;;;;;;;4.13;100.00;101580.03;5044020;28;20370;-74
2022/01/06 10:55:16;;;;;;;;;;;;;;;4.05;100.00;101580.41;5075463;28;20004;-77
2022/01/06 10:57:54;;;;;;;;;;;;;;;4.04;100.00;101577.88;5075037;28;19939;-75
2022/01/06 11:00:23;;;;;;;;;;;;;;;3.85;100.00;101585.72;5058702;28;19916;-77
2022/01/06 11:02:48;;;;;;;;;;;;;;;3.84;100.00;101582.28;5040734;28;19917;-74
2022/01/06 11:05:14;;;;;;;;;;;;;;;3.86;100.00;101570.00;5057947;28;19927;-74
2022/01/06 11:07:40;;;;;;;;;;;;;;;3.77;100.00;101586.09;5058308;28;19920;-74
2022/01/06 11:10:14;;;;;;;;;;;;;;;3.62;100.00;101576.34;5076952;28;19993;-79
2022/01/06 11:12:42;;;;;;;;;;;;;;;3.47;100.00;101576.09;5060634;28;19916;-74
2022/01/06 11:15:08;;;;;;;;;;;;;;;3.49;100.00;101579.50;5058963;28;20016;-75
2022/01/06 11:17:34;;;;;;;;;;;;;;;3.46;100.00;101576.19;5057820;28;19960;-73
2022/01/06 11:20:00;;;;;;;;;;;;;;;3.49;100.00;101583.88;5076138;28;19916;-74
2022/01/06 11:22:27;;;;;;;;;;;;;;;3.66;100.00;101583.13;5057027;28;19966;-72
2022/01/06 11:24:53;;;;;;;;;;;;;;;3.42;100.00;101575.47;5058579;28;20016;-77
2022/01/06 11:27:29;;;;;;;;;;;;;;;3.37;100.00;101579.22;5058764;28;19944;-75
2022/01/06 11:29:55;;;;;;;;;;;;;;;3.43;100.00;101574.56;5481261;23;19936;-73
2022/01/06 11:32:38;;;;;;;;;;;;;;;3.61;100.00;101572.88;5041669;28;19968;-74
2022/01/06 11:35:11;;;;;;;;;;;;;;;3.92;100.00;101571.47;5032750;28;19912;-73
2022/01/06 11:37:44;;;;;;;;;;;;;;;4.10;100.00;101572.38;5036862;28;19943;-73
2022/01/06 11:40:10;;;;;;;;;;;;;;;4.36;100.00;101573.72;5023573;28;19920;-75
2022/01/06 11:42:36;;;;;;;;;;;;;;;4.05;100.00;101569.13;5041548;28;19925;-73
2022/01/06 11:45:05;;;;;;;;;;;;;;;4.23;100.00;101567.41;5024487;28;19970;-76
2022/01/06 11:47:34;;;;;;;;;;;;;;;4.59;100.00;101565.59;5059462;28;19917;-74
2022/01/06 11:50:12;;;;;;;;;;;;;;;4.75;100.00;101560.44;5053361;28;19921;-75
2022/01/06 11:53:00;;;;;;;;;;;;;;;4.98;100.00;101568.91;5038905;28;20016;-72
2022/01/06 11:55:34;;;;;;;;;;;;;;;4.73;100.00;101561.47;5041167;28;19924;-76
2022/01/06 11:58:16;;;;;;;;;;;;;;;4.44;100.00;101565.50;5057319;28;20365;-73
2022/01/06 12:00:53;;;;;;;;;;;;;;;4.22;100.00;101566.53;5036917;28;20042;-74
2022/01/06 12:05:54;;;;;;;;;;;;;;;3.39;100.00;101578.22;5174607;22;19955;-73
2022/01/06 12:08:22;;;;;;;;;;;;;;;3.49;100.00;101568.19;5039171;28;19985;-74
2022/01/06 12:10:49;;;;;;;;;;;;;;;3.60;100.00;101554.66;5043395;28;19916;-77
2022/01/06 12:13:21;;;;;;;;;;;;;;;3.45;100.00;101549.22;5097104;22;19978;-73
2022/01/06 12:15:50;;;;;;;;;;;;;;;3.73;100.00;101550.56;5057845;28;19928;-72
2022/01/06 12:18:20;;;;;;;;;;;;;;;4.10;100.00;101541.84;5038206;28;19917;-72
2022/01/06 12:20:47;;;;;;;;;;;;;;;4.35;100.00;101538.88;5056351;28;19925;-73
2022/01/06 12:23:12;;;;;;;;;;;;;;;4.67;100.00;101541.66;5038764;28;19925;-74
2022/01/06 12:25:38;;;;;;;;;;;;;;;4.87;100.00;101538.03;5059510;28;20003;-72
2022/01/06 12:28:08;;;;;;;;;;;;;;;5.99;100.00;101525.97;5025038;28;19923;-72
2022/01/06 12:30:35;;;;;;;;;;;;;;;7.38;100.00;101516.91;5036045;28;19925;-73
2022/01/06 12:33:03;;;;;;;;;;;;;;;7.82;100.00;101513.25;5038802;28;19920;-73
2022/01/06 12:35:47;;;;;;;;;;;;;;;8.03;100.00;101520.72;5039172;28;20045;-73
2022/01/06 12:38:14;;;;;;;;;;;;;;;7.48;100.00;101515.38;5056172;28;19921;-75
2022/01/06 12:40:44;;;;;;;;;;;;;;;8.30;100.00;101512.81;5018902;28;19971;-73
2022/01/06 12:43:14;;;;;;;;;;;;;;;8.64;100.00;101500.91;5037637;28;19925;-73
2022/01/06 12:45:40;;;;;;;;;;;;;;;9.11;100.00;101495.97;5062351;28;19923;-75
2022/01/06 12:48:05;;;;;;;;;;;;;;;7.86;100.00;101492.88;5021604;28;20019;-74